Stations météo

réclame
Mon MeteoGroup
Navacerrada, Espagne (8215): Température de l'air & dewpoint: 12.11.2017 00:00:00 - 18.11.2017 00:00:00 (CET)Navacerrada, Espagne (8215): Vitesse du vent: 12.11.2017 00:00:00 - 18.11.2017 00:00:00 (CET)Navacerrada, Espagne (8215): Direction du vent: 12.11.2017 00:00:00 - 18.11.2017 00:00:00 (CET)Navacerrada, Espagne (8215): visibility: 12.11.2017 00:00:00 - 18.11.2017 00:00:00 (CET)Navacerrada, Espagne (8215): Quantités de précipitations: 12.11.2017 00:00:00 - 18.11.2017 00:00:00 (CET)
Date & Time tt [°C] td [°C] ff [km/h] ff [knt] dd vv [km] rr [mm]
18.11.2017 00:00:00 - - - - - - -
17.11.2017 23:00:00 6,6 -3,4 2 1 NW 20 0,0
17.11.2017 22:00:00 6,9 -2,3 5 3 NW 20 -
17.11.2017 21:00:00 6,5 -1,7 5 3 NNW 20 0,0
17.11.2017 20:00:00 6,8 -1,4 4 2 NW 20 0,0
17.11.2017 19:00:00 7,4 -0,6 8 4 WNW 15 -
17.11.2017 18:00:00 7,9 -0,6 5 3 NNE 20 0,0
17.11.2017 17:00:00 9,2 -0,4 4 2 NW 20 0,0
17.11.2017 16:00:00 10,3 -0,2 2 1 SE 30 -
17.11.2017 15:00:00 11,5 0,3 2 1 NW 20 0,0
17.11.2017 14:00:00 11,8 -0,1 4 2 ESE 20 0,0
17.11.2017 13:00:00 12,5 -1,5 4 2 NNW 30 -
17.11.2017 12:00:00 11,7 -4,9 4 2 WNW 20 0,0
17.11.2017 11:00:00 11,0 -5,1 5 3 WNW 20 0,0
17.11.2017 10:00:00 10,0 -7,7 8 4 N 3,0 -
17.11.2017 09:00:00 8,2 -7,1 11 6 NNE 20 0,0
17.11.2017 08:00:00 7,5 -7,4 13 7 NNE 20 0,0
17.11.2017 07:00:00 6,5 -4,6 11 6 N 20 -
17.11.2017 06:00:00 6,6 -4,2 4 2 W 20 0,0
17.11.2017 05:00:00 6,3 -3,6 8 4 NNW 20 0,0
17.11.2017 04:00:00 6,5 -4,0 8 4 NNW 20 -
17.11.2017 03:00:00 6,0 -4,8 9 5 NNE 20 0,0
17.11.2017 02:00:00 7,2 -6,9 5 3 NNE 20 0,0
17.11.2017 01:00:00 7,1 -7,0 8 4 E 20 -
17.11.2017 00:00:00 7,1 -5,3 4 2 SE 20 0,0
16.11.2017 23:00:00 6,1 -3,8 11 6 ENE 20 0,0
16.11.2017 22:00:00 6,3 -3,6 8 4 ENE 20 -
16.11.2017 21:00:00 6,6 -3,1 8 4 N 20 0,0
16.11.2017 20:00:00 5,9 -2,7 9 5 NE 20 0,0
16.11.2017 19:00:00 6,1 -2,3 9 5 ENE 15 -
16.11.2017 18:00:00 6,6 -2,3 11 6 NNW 20 0,0
16.11.2017 17:00:00 10,4 -2,6 5 3 WNW 20 0,0
16.11.2017 16:00:00 11,1 -3,1 8 4 NW 30 -
16.11.2017 15:00:00 11,3 -3,3 8 4 NW 20 0,0
16.11.2017 14:00:00 11,8 -4,4 5 3 NNW 20 0,0
16.11.2017 13:00:00 12,2 -2,5 2 1 N 45 -
16.11.2017 12:00:00 11,6 -5,4 4 2 WNW 20 0,0
16.11.2017 11:00:00 11,0 -6,8 4 2 WNW 20 0,0
16.11.2017 10:00:00 9,3 -7,9 5 3 NNW 30 -
16.11.2017 09:00:00 7,2 -8,0 8 4 N 20 0,0
16.11.2017 08:00:00 6,8 -8,4 5 3 WNW 20 0,0
16.11.2017 07:00:00 7,4 -9,1 4 2 SW 15 -
16.11.2017 06:00:00 7,6 -9,3 4 2 W 20 0,0
16.11.2017 05:00:00 7,5 -9,4 5 3 W 20 0,0
16.11.2017 04:00:00 6,5 -9,4 5 3 E 20 -
16.11.2017 03:00:00 6,3 -7,7 13 7 ENE 19 0,0
16.11.2017 02:00:00 7,2 -8,4 4 2 NW 19 0,0
16.11.2017 01:00:00 7,7 -8,0 13 7 N 20 -
16.11.2017 00:00:00 7,6 -7,7 13 7 N 20 0,0
15.11.2017 23:00:00 6,8 -9,6 11 6 N 20 0,0
15.11.2017 22:00:00 7,8 -7,9 13 7 N 20 -
15.11.2017 21:00:00 6,6 -7,8 9 5 N 20 0,0
15.11.2017 20:00:00 6,4 -8,4 9 5 N 20 0,0
15.11.2017 19:00:00 6,7 -6,6 11 6 N 15 -
15.11.2017 18:00:00 6,1 -2,5 8 4 N 20 0,0
15.11.2017 17:00:00 8,6 -2,1 4 2 N 20 0,0
15.11.2017 16:00:00 8,6 -1,5 5 3 NW 25 -
15.11.2017 15:00:00 8,8 -2,8 4 2 NNE 20 0,0
15.11.2017 14:00:00 9,0 -1,7 2 1 N 20 0,0
15.11.2017 13:00:00 9,3 -2,0 4 2 NW 25 -
15.11.2017 12:00:00 10,3 -4,1 4 2 NNW 20 0,0
15.11.2017 11:00:00 9,1 -4,1 8 4 NNW 20 0,0
15.11.2017 10:00:00 9,4 -8,2 5 3 N 30 -
15.11.2017 09:00:00 7,5 -9,4 9 5 N 20 0,0
15.11.2017 08:00:00 6,7 -9,7 11 6 NNE 20 0,0
15.11.2017 07:00:00 6,5 -7,9 11 6 NNE 15 -
15.11.2017 06:00:00 6,3 -7,0 8 4 N 20 0,0
15.11.2017 05:00:00 6,7 -7,0 4 2 WNW 20 0,0
15.11.2017 04:00:00 6,5 -6,8 8 4 NW 20 -
15.11.2017 03:00:00 6,9 -6,8 4 2 SSW 20 0,0
15.11.2017 02:00:00 7,1 -7,0 5 3 ENE 20 0,0
15.11.2017 01:00:00 6,0 -6,9 8 4 SW 20 -
15.11.2017 00:00:00 5,2 -6,7 9 5 W 20 0,0
14.11.2017 23:00:00 6,8 -6,2 8 4 NNE 20 0,0
14.11.2017 22:00:00 5,7 -6,9 8 4 W 20 -
14.11.2017 21:00:00 6,4 -5,3 11 6 NNE 20 0,0
14.11.2017 20:00:00 5,9 -4,6 11 6 NE 20 0,0
14.11.2017 19:00:00 5,1 -2,7 4 2 W 15 -
14.11.2017 18:00:00 6,5 -3,2 11 6 N 20 0,0
14.11.2017 17:00:00 9,5 0,6 5 3 WNW 20 0,0
14.11.2017 16:00:00 6,6 -1,1 4 2 ENE 40 -
14.11.2017 15:00:00 10,0 -2,3 4 2 N 20 0,0
14.11.2017 14:00:00 10,4 -1,7 4 2 W 20 0,0
14.11.2017 13:00:00 8,7 -3,5 4 2 N 40 -
14.11.2017 12:00:00 7,6 -5,8 4 2 WNW 20 0,0
14.11.2017 11:00:00 4,6 -8,2 8 4 WSW 20 0,0
14.11.2017 10:00:00 3,5 -12,1 9 5 W 30 -
14.11.2017 09:00:00 1,7 -6,9 9 5 N 20 0,0
14.11.2017 08:00:00 0,5 -10,7 9 5 NNW 20 0,0
14.11.2017 07:00:00 1,5 -9,2 13 7 N 15 -
14.11.2017 06:00:00 -1,3 -11,7 11 6 WNW 20 0,0
14.11.2017 05:00:00 -0,8 -9,9 11 6 NNE 20 0,0
14.11.2017 04:00:00 -1,8 -9,2 13 7 NW 20 -
14.11.2017 03:00:00 -4,4 -6,9 15 8 NNW 20 0,0
14.11.2017 02:00:00 -4,3 -6,6 13 7 WNW 20 0,0
14.11.2017 01:00:00 -5,0 -5,8 9 5 WNW 20 -
14.11.2017 00:00:00 -5,1 -5,2 9 5 NW 17 0,0
13.11.2017 23:00:00 -4,9 -5,0 15 8 NNW 19 0,0
13.11.2017 22:00:00 -4,4 -4,7 18 10 N 18 -
13.11.2017 21:00:00 -3,3 -5,9 28 15 NNW 20 0,0
13.11.2017 20:00:00 -3,6 -4,4 22 12 NNW 20 0,0
13.11.2017 19:00:00 -3,0 -4,0 26 14 N 12 -
13.11.2017 18:00:00 -2,6 -3,3 26 14 N 20 0,0
13.11.2017 17:00:00 -1,6 -2,3 22 12 NNE 20 0,0
13.11.2017 16:00:00 -1,2 -2,2 11 6 N 15 -
13.11.2017 15:00:00 -0,9 -2,0 22 12 N 20 0,0
13.11.2017 14:00:00 -1,0 -1,7 16 9 N 20 0,0
13.11.2017 13:00:00 -1,2 -1,2 22 12 N 5 -
13.11.2017 12:00:00 -1,1 -1,1 29 16 N 20 0,0
13.11.2017 11:00:00 -1,3 -1,3 26 14 N 0,3 0,0
13.11.2017 10:00:00 -1,5 -1,5 24 13 N - -
13.11.2017 09:00:00 -1,5 -1,5 22 12 N 0,1 0,0
13.11.2017 08:00:00 -1,0 -1,0 24 13 N - 0,0
13.11.2017 07:00:00 0,1 0,1 22 12 N - -
13.11.2017 06:00:00 0,7 0,7 18 10 N - 0,0
13.11.2017 05:00:00 1,3 1,3 21 11 NNW - 0,0
13.11.2017 04:00:00 2,1 2,1 18 10 N - -
13.11.2017 03:00:00 2,5 2,5 21 11 N 17 0,0
13.11.2017 02:00:00 2,2 2,2 15 8 N 0,1 0,0
13.11.2017 01:00:00 1,9 1,9 16 9 N 0,1 -
13.11.2017 00:00:00 2,1 1,7 13 7 N - 0,0
12.11.2017 23:00:00 2,3 1,7 15 8 NNE 7 0,0
12.11.2017 22:00:00 1,9 1,3 16 9 NE - -
12.11.2017 21:00:00 1,8 1,1 22 12 NNE 6 0,0
12.11.2017 20:00:00 1,8 0,5 22 12 N 13 0,0
12.11.2017 19:00:00 2,2 0,3 18 10 N 15 -
12.11.2017 18:00:00 3,7 0,2 15 8 NNW 20 0,0
12.11.2017 17:00:00 5,5 0,8 16 9 NNW 20 0,0
12.11.2017 16:00:00 6,4 0,7 16 9 N 20 -
12.11.2017 15:00:00 7,7 0,2 16 9 N 20 0,0
12.11.2017 14:00:00 8,0 -0,3 11 6 N 20 0,0
12.11.2017 13:00:00 7,0 -0,9 18 10 N 20 -
12.11.2017 12:00:00 8,1 -2,3 15 8 N 20 0,0
12.11.2017 11:00:00 5,8 -2,8 21 11 N 20 0,0
12.11.2017 10:00:00 5,5 -4,4 21 11 N 20 -
12.11.2017 09:00:00 3,8 -2,6 22 12 NNE 20 0,0
12.11.2017 08:00:00 3,6 -3,0 24 13 N 20 0,0
12.11.2017 07:00:00 4,0 -4,2 22 12 NNE 10 -
12.11.2017 06:00:00 4,3 -5,0 21 11 NNE 20 0,0
12.11.2017 05:00:00 4,2 -5,1 18 10 NNE 20 0,0
12.11.2017 04:00:00 3,4 -1,6 16 9 NNW 20 -
12.11.2017 03:00:00 4,1 -3,4 18 10 N 20 0,0
12.11.2017 02:00:00 4,7 -3,3 16 9 N 20 0,0
12.11.2017 01:00:00 4,2 -3,3 16 9 N 20 -
12.11.2017 00:00:00 4,5 -7,0 18 10 N 20 0,0

tt = Température de l'air
td = dewpoint
ff = Vitesse du vent
dd = Direction du vent
vv = visibility
rr = Quantités de précipitations

stations d'obs. à proximité